Vernal Regional Airport
KVEL : rendu visible

Aérodrome :











RETROUVEZ-NOUS SUR...

 
LOGIN :

S'inscrire | Disclaimer

   EN    FR    IT 

 









Légende :    VFR   VFR Marginal   IFR   IFR Intensif   IFR Très Intensif
Visi : 
Plafond : 
>= 8 km
>= 3000ft
5 à 8 km
1000 à 3000 ft
1500m à 5 km
500 à 1000 ft
800 à 1500m
200 à 500 ft
< 800m
< 200 ft
Symboles :   Orages  Brouillard  Fortes neiges  Fortes précipitations  Vent > 20 kt






- Altitude de l'aérodrome : 5278 ft


KVEL - Vernal Regional

DERNIER METAR :
  • 290253Z AUTO 05006KT 10SM BKN080 BKN090 02/M02 A3008 RMK AO2 SLP199 60000 T00171017 51012

METARs EXPIRÉS :
  • 290153Z AUTO 06006KT 10SM FEW060 OVC075 03/M01 A3006 RMK AO2 SLP197 T00281011
  • 290053Z AUTO 05006KT 10SM FEW048 SCT055 OVC070 04/M02 A3005 RMK AO2 RAE08 SLP191 P0000 T00391017

TAF KVEL
Valide du 29 à 00h jusqu'au 30 à 00h UTC


282326Z 2900/2924 22006KT P6SM VCSH BKN060 BKN080
FM290300 VRB04KT P6SM BKN100
FM292100 20005KT P6SM SCT060



MET'MAP, la Météo Aéronautique d'un coup d'oeil ! - Copyright ORBIFLY Décembre 2007 - Disclaimer

ORBIFLY MET'MAP TEAM :

Programmation & Développement : Alexandra Zaïnal
Sur une idée originale de : Baudouin d'Aumeries
Assistance à la programmation : Marc-Olivier Méhu
Soutien technique & logistique : Manuel Goepfert

Contact : metmap@orbifly.com




SOURCES & CREDITS :

   NOAA       Earth
Advisory